sensor_id;sensor_type;location;lat;lon;timestamp;pressure;altitude;pressure_sealevel;temperature
62611;BMP280;48683;48.084;17.272;2023-08-31T00:00:00;99645.13;;;16.70
62611;BMP280;48683;48.084;17.272;2023-08-31T00:02:25;99643.13;;;16.61
62611;BMP280;48683;48.084;17.272;2023-08-31T00:04:51;99644.19;;;16.64
62611;BMP280;48683;48.084;17.272;2023-08-31T00:07:17;99647.00;;;16.60
62611;BMP280;48683;48.084;17.272;2023-08-31T00:09:42;99653.38;;;16.66
62611;BMP280;48683;48.084;17.272;2023-08-31T00:12:07;99643.13;;;16.61
62611;BMP280;48683;48.084;17.272;2023-08-31T00:14:32;99652.81;;;16.71
62611;BMP280;48683;48.084;17.272;2023-08-31T00:16:57;99657.34;;;16.74
62611;BMP280;48683;48.084;17.272;2023-08-31T00:19:23;99662.09;;;16.83
62611;BMP280;48683;48.084;17.272;2023-08-31T00:21:48;99656.38;;;16.81
62611;BMP280;48683;48.084;17.272;2023-08-31T00:24:13;99663.16;;;16.85
62611;BMP280;48683;48.084;17.272;2023-08-31T00:26:39;99665.22;;;16.81
62611;BMP280;48683;48.084;17.272;2023-08-31T00:29:05;99665.66;;;16.92
62611;BMP280;48683;48.084;17.272;2023-08-31T00:31:31;99660.91;;;16.84
62611;BMP280;48683;48.084;17.272;2023-08-31T00:33:56;99659.25;;;16.86
62611;BMP280;48683;48.084;17.272;2023-08-31T00:36:21;99663.50;;;16.87
62611;BMP280;48683;48.084;17.272;2023-08-31T00:38:46;99658.50;;;16.86
62611;BMP280;48683;48.084;17.272;2023-08-31T00:41:12;99670.31;;;16.92
62611;BMP280;48683;48.084;17.272;2023-08-31T00:43:37;99669.56;;;16.91
62611;BMP280;48683;48.084;17.272;2023-08-31T00:46:03;99669.09;;;16.93
62611;BMP280;48683;48.084;17.272;2023-08-31T00:48:29;99677.00;;;17.00
62611;BMP280;48683;48.084;17.272;2023-08-31T00:50:54;99666.06;;;16.91
62611;BMP280;48683;48.084;17.272;2023-08-31T00:53:19;99679.88;;;17.05
62611;BMP280;48683;48.084;17.272;2023-08-31T00:55:45;99685.81;;;17.13
62611;BMP280;48683;48.084;17.272;2023-08-31T00:58:10;99691.56;;;17.15
62611;BMP280;48683;48.084;17.272;2023-08-31T01:03:01;99690.56;;;17.00
62611;BMP280;48683;48.084;17.272;2023-08-31T01:13:19;99702.13;;;17.00
62611;BMP280;48683;48.084;17.272;2023-08-31T01:15:48;99710.72;;;16.99
62611;BMP280;48683;48.084;17.272;2023-08-31T01:18:16;99715.69;;;17.00
62611;BMP280;48683;48.084;17.272;2023-08-31T01:21:02;99709.84;;;17.02
62611;BMP280;48683;48.084;17.272;2023-08-31T01:23:38;99715.63;;;16.91
62611;BMP280;48683;48.084;17.272;2023-08-31T01:26:05;99718.66;;;16.93
62611;BMP280;48683;48.084;17.272;2023-08-31T01:28:30;99722.88;;;16.94
62611;BMP280;48683;48.084;17.272;2023-08-31T01:30:56;99726.78;;;16.93
62611;BMP280;48683;48.084;17.272;2023-08-31T01:33:22;99728.84;;;16.89
62611;BMP280;48683;48.084;17.272;2023-08-31T01:35:48;99725.97;;;16.84
62611;BMP280;48683;48.084;17.272;2023-08-31T01:38:15;99723.25;;;16.84
62611;BMP280;48683;48.084;17.272;2023-08-31T01:40:44;99723.88;;;16.88
62611;BMP280;48683;48.084;17.272;2023-08-31T01:43:11;99731.56;;;16.89
62611;BMP280;48683;48.084;17.272;2023-08-31T01:45:36;99727.41;;;16.97
62611;BMP280;48683;48.084;17.272;2023-08-31T01:48:03;99729.50;;;16.93
62611;BMP280;48683;48.084;17.272;2023-08-31T01:50:28;99724.81;;;16.94
62611;BMP280;48683;48.084;17.272;2023-08-31T01:52:53;99727.53;;;16.94
62611;BMP280;48683;48.084;17.272;2023-08-31T01:55:19;99720.69;;;17.02
62611;BMP280;48683;48.084;17.272;2023-08-31T01:57:44;99725.97;;;17.05
62611;BMP280;48683;48.084;17.272;2023-08-31T02:00:09;99730.50;;;17.08
62611;BMP280;48683;48.084;17.272;2023-08-31T02:02:35;99725.97;;;17.05
62611;BMP280;48683;48.084;17.272;2023-08-31T02:05:00;99732.41;;;16.99
62611;BMP280;48683;48.084;17.272;2023-08-31T02:07:27;99728.38;;;17.03
62611;BMP280;48683;48.084;17.272;2023-08-31T02:09:52;99735.63;;;17.06
62611;BMP280;48683;48.084;17.272;2023-08-31T02:12:17;99728.59;;;16.96
62611;BMP280;48683;48.084;17.272;2023-08-31T02:14:42;99731.41;;;17.05
62611;BMP280;48683;48.084;17.272;2023-08-31T02:17:07;99742.00;;;17.13
62611;BMP280;48683;48.084;17.272;2023-08-31T02:19:33;99743.31;;;17.08
62611;BMP280;48683;48.084;17.272;2023-08-31T02:21:58;99740.16;;;17.09
62611;BMP280;48683;48.084;17.272;2023-08-31T02:24:23;99746.78;;;17.08
62611;BMP280;48683;48.084;17.272;2023-08-31T02:26:49;99745.28;;;17.07
62611;BMP280;48683;48.084;17.272;2023-08-31T02:29:15;99733.59;;;16.98
62611;BMP280;48683;48.084;17.272;2023-08-31T02:31:40;99742.41;;;16.89
62611;BMP280;48683;48.084;17.272;2023-08-31T02:34:06;99735.69;;;16.81
62611;BMP280;48683;48.084;17.272;2023-08-31T02:36:32;99743.41;;;16.83
62611;BMP280;48683;48.084;17.272;2023-08-31T02:38:57;99747.16;;;16.98
62611;BMP280;48683;48.084;17.272;2023-08-31T02:41:22;99749.88;;;16.85
62611;BMP280;48683;48.084;17.272;2023-08-31T02:43:50;99757.91;;;16.89
62611;BMP280;48683;48.084;17.272;2023-08-31T02:46:15;99761.25;;;16.93
62611;BMP280;48683;48.084;17.272;2023-08-31T02:48:40;99760.53;;;16.92
62611;BMP280;48683;48.084;17.272;2023-08-31T02:51:05;99759.75;;;16.92
62611;BMP280;48683;48.084;17.272;2023-08-31T02:53:30;99757.22;;;16.97
62611;BMP280;48683;48.084;17.272;2023-08-31T02:55:56;99762.88;;;17.03
62611;BMP280;48683;48.084;17.272;2023-08-31T02:58:21;99759.06;;;17.00
62611;BMP280;48683;48.084;17.272;2023-08-31T03:00:46;99764.19;;;16.98
62611;BMP280;48683;48.084;17.272;2023-08-31T03:03:16;99760.72;;;16.98
62611;BMP280;48683;48.084;17.272;2023-08-31T03:05:41;99763.41;;;16.98
62611;BMP280;48683;48.084;17.272;2023-08-31T03:08:07;99763.94;;;17.05
62611;BMP280;48683;48.084;17.272;2023-08-31T03:10:32;99768.84;;;16.98
62611;BMP280;48683;48.084;17.272;2023-08-31T03:12:57;99761.03;;;17.00
62611;BMP280;48683;48.084;17.272;2023-08-31T03:15:22;99759.13;;;16.88
62611;BMP280;48683;48.084;17.272;2023-08-31T03:17:48;99750.66;;;16.86
62611;BMP280;48683;48.084;17.272;2023-08-31T03:20:13;99754.03;;;16.77
62611;BMP280;48683;48.084;17.272;2023-08-31T03:22:39;99760.44;;;16.71
62611;BMP280;48683;48.084;17.272;2023-08-31T03:25:04;99761.31;;;16.80
62611;BMP280;48683;48.084;17.272;2023-08-31T03:27:29;99763.00;;;16.87
62611;BMP280;48683;48.084;17.272;2023-08-31T03:29:54;99764.84;;;16.90
62611;BMP280;48683;48.084;17.272;2023-08-31T03:32:19;99772.09;;;16.93
62611;BMP280;48683;48.084;17.272;2023-08-31T03:34:45;99774.50;;;16.91
62611;BMP280;48683;48.084;17.272;2023-08-31T03:37:10;99773.75;;;16.90
62611;BMP280;48683;48.084;17.272;2023-08-31T03:39:35;99777.00;;;16.85
62611;BMP280;48683;48.084;17.272;2023-08-31T03:42:00;99779.41;;;16.83
62611;BMP280;48683;48.084;17.272;2023-08-31T03:44:25;99775.94;;;16.83
62611;BMP280;48683;48.084;17.272;2023-08-31T03:46:51;99775.81;;;16.86
62611;BMP280;48683;48.084;17.272;2023-08-31T03:49:16;99782.75;;;16.87
62611;BMP280;48683;48.084;17.272;2023-08-31T03:51:41;99784.69;;;16.87
62611;BMP280;48683;48.084;17.272;2023-08-31T03:54:06;99780.56;;;16.95
62611;BMP280;48683;48.084;17.272;2023-08-31T03:56:32;99789.88;;;16.94
62611;BMP280;48683;48.084;17.272;2023-08-31T03:58:57;99777.22;;;16.91
62611;BMP280;48683;48.084;17.272;2023-08-31T04:01:22;99786.41;;;16.93
62611;BMP280;48683;48.084;17.272;2023-08-31T04:03:48;99787.94;;;16.94
62611;BMP280;48683;48.084;17.272;2023-08-31T04:06:13;99789.25;;;16.90
62611;BMP280;48683;48.084;17.272;2023-08-31T04:08:38;99775.16;;;16.82
62611;BMP280;48683;48.084;17.272;2023-08-31T04:11:04;99775.72;;;16.77
62611;BMP280;48683;48.084;17.272;2023-08-31T04:13:29;99781.69;;;16.72
62611;BMP280;48683;48.084;17.272;2023-08-31T04:15:54;99771.09;;;16.65
62611;BMP280;48683;48.084;17.272;2023-08-31T04:18:20;99778.13;;;16.63
62611;BMP280;48683;48.084;17.272;2023-08-31T04:20:51;99778.00;;;16.66
62611;BMP280;48683;48.084;17.272;2023-08-31T04:23:17;99775.88;;;16.61
62611;BMP280;48683;48.084;17.272;2023-08-31T04:25:43;99779.88;;;16.56
62611;BMP280;48683;48.084;17.272;2023-08-31T04:28:08;99780.84;;;16.63
62611;BMP280;48683;48.084;17.272;2023-08-31T04:30:33;99792.19;;;16.70
62611;BMP280;48683;48.084;17.272;2023-08-31T04:32:59;99794.78;;;16.74
62611;BMP280;48683;48.084;17.272;2023-08-31T04:35:24;99801.84;;;16.84
62611;BMP280;48683;48.084;17.272;2023-08-31T04:37:49;99799.00;;;16.87
62611;BMP280;48683;48.084;17.272;2023-08-31T04:40:14;99811.34;;;17.01
62611;BMP280;48683;48.084;17.272;2023-08-31T04:42:40;99813.09;;;16.95
62611;BMP280;48683;48.084;17.272;2023-08-31T04:45:05;99812.88;;;16.89
62611;BMP280;48683;48.084;17.272;2023-08-31T04:47:30;99816.22;;;16.93
62611;BMP280;48683;48.084;17.272;2023-08-31T04:49:56;99817.00;;;16.94
62611;BMP280;48683;48.084;17.272;2023-08-31T04:52:22;99817.50;;;17.14
62611;BMP280;48683;48.084;17.272;2023-08-31T04:54:47;99815.16;;;17.25
62611;BMP280;48683;48.084;17.272;2023-08-31T04:57:12;99821.13;;;17.33
62611;BMP280;48683;48.084;17.272;2023-08-31T04:59:37;99829.13;;;17.36
62611;BMP280;48683;48.084;17.272;2023-08-31T05:02:03;99829.00;;;17.40
62611;BMP280;48683;48.084;17.272;2023-08-31T05:04:28;99833.38;;;17.37
62611;BMP280;48683;48.084;17.272;2023-08-31T05:06:53;99838.69;;;17.28
62611;BMP280;48683;48.084;17.272;2023-08-31T05:09:19;99839.66;;;17.34
62611;BMP280;48683;48.084;17.272;2023-08-31T05:11:44;99839.66;;;17.34
62611;BMP280;48683;48.084;17.272;2023-08-31T05:14:09;99844.72;;;17.45
62611;BMP280;48683;48.084;17.272;2023-08-31T05:16:34;99848.50;;;17.47
62611;BMP280;48683;48.084;17.272;2023-08-31T05:18:59;99847.94;;;17.52
62611;BMP280;48683;48.084;17.272;2023-08-31T05:21:25;99853.16;;;17.60
62611;BMP280;48683;48.084;17.272;2023-08-31T05:23:50;99845.38;;;17.49
62611;BMP280;48683;48.084;17.272;2023-08-31T05:26:15;99837.34;;;17.58
62611;BMP280;48683;48.084;17.272;2023-08-31T05:28:41;99851.56;;;17.49
62611;BMP280;48683;48.084;17.272;2023-08-31T05:31:06;99854.25;;;17.62
62611;BMP280;48683;48.084;17.272;2023-08-31T05:33:31;99856.06;;;17.65
62611;BMP280;48683;48.084;17.272;2023-08-31T05:35:59;99858.47;;;17.63
62611;BMP280;48683;48.084;17.272;2023-08-31T05:38:25;99863.88;;;17.63
62611;BMP280;48683;48.084;17.272;2023-08-31T05:40:50;99867.88;;;17.71
62611;BMP280;48683;48.084;17.272;2023-08-31T05:43:16;99864.66;;;17.64
62611;BMP280;48683;48.084;17.272;2023-08-31T05:45:41;99869.41;;;17.72
62611;BMP280;48683;48.084;17.272;2023-08-31T05:48:07;99869.41;;;17.72
62611;BMP280;48683;48.084;17.272;2023-08-31T05:50:32;99870.97;;;17.61
62611;BMP280;48683;48.084;17.272;2023-08-31T05:52:57;99869.31;;;17.63
62611;BMP280;48683;48.084;17.272;2023-08-31T05:55:23;99879.75;;;17.65
62611;BMP280;48683;48.084;17.272;2023-08-31T05:57:48;99874.56;;;17.58
62611;BMP280;48683;48.084;17.272;2023-08-31T06:00:14;99874.56;;;17.58
62611;BMP280;48683;48.084;17.272;2023-08-31T06:02:39;99882.47;;;17.65
62611;BMP280;48683;48.084;17.272;2023-08-31T06:05:04;99888.94;;;17.67
62611;BMP280;48683;48.084;17.272;2023-08-31T06:07:30;99878.81;;;17.59
62611;BMP280;48683;48.084;17.272;2023-08-31T06:09:56;99888.22;;;17.54
62611;BMP280;48683;48.084;17.272;2023-08-31T06:12:21;99886.28;;;17.54
62611;BMP280;48683;48.084;17.272;2023-08-31T06:14:46;99886.47;;;17.60
62611;BMP280;48683;48.084;17.272;2023-08-31T06:17:11;99907.22;;;17.88
62611;BMP280;48683;48.084;17.272;2023-08-31T06:19:38;99906.59;;;18.06
62611;BMP280;48683;48.084;17.272;2023-08-31T06:22:03;99917.72;;;18.21
62611;BMP280;48683;48.084;17.272;2023-08-31T06:24:28;99919.78;;;18.38
62611;BMP280;48683;48.084;17.272;2023-08-31T06:26:54;99919.75;;;18.60
62611;BMP280;48683;48.084;17.272;2023-08-31T06:29:20;99909.72;;;18.79
62611;BMP280;48683;48.084;17.272;2023-08-31T06:31:46;99907.34;;;18.90
62611;BMP280;48683;48.084;17.272;2023-08-31T06:34:11;99920.09;;;19.11
62611;BMP280;48683;48.084;17.272;2023-08-31T06:36:36;99911.63;;;19.09
62611;BMP280;48683;48.084;17.272;2023-08-31T06:39:01;99914.97;;;19.22
62611;BMP280;48683;48.084;17.272;2023-08-31T06:41:26;99916.38;;;19.36
62611;BMP280;48683;48.084;17.272;2023-08-31T06:43:52;99910.75;;;19.30
62611;BMP280;48683;48.084;17.272;2023-08-31T06:46:17;99921.56;;;19.61
62611;BMP280;48683;48.084;17.272;2023-08-31T06:48:42;99929.28;;;19.90
62611;BMP280;48683;48.084;17.272;2023-08-31T06:51:08;99923.38;;;20.01
62611;BMP280;48683;48.084;17.272;2023-08-31T06:53:33;99920.81;;;19.97
62611;BMP280;48683;48.084;17.272;2023-08-31T06:55:58;99931.69;;;20.06
62611;BMP280;48683;48.084;17.272;2023-08-31T06:58:23;99923.81;;;20.08
62611;BMP280;48683;48.084;17.272;2023-08-31T07:00:49;99920.91;;;20.39
62611;BMP280;48683;48.084;17.272;2023-08-31T07:03:14;99915.88;;;20.47
62611;BMP280;48683;48.084;17.272;2023-08-31T07:05:42;99916.47;;;20.60
62611;BMP280;48683;48.084;17.272;2023-08-31T07:08:08;99928.69;;;20.73
62611;BMP280;48683;48.084;17.272;2023-08-31T07:10:33;99925.06;;;20.67
62611;BMP280;48683;48.084;17.272;2023-08-31T07:13:01;99938.19;;;20.78
62611;BMP280;48683;48.084;17.272;2023-08-31T07:15:26;99921.38;;;20.79
62611;BMP280;48683;48.084;17.272;2023-08-31T07:17:52;99923.97;;;20.74
62611;BMP280;48683;48.084;17.272;2023-08-31T07:20:17;99920.13;;;20.90
62611;BMP280;48683;48.084;17.272;2023-08-31T07:22:42;99921.28;;;20.98
62611;BMP280;48683;48.084;17.272;2023-08-31T07:25:07;99930.78;;;21.20
62611;BMP280;48683;48.084;17.272;2023-08-31T07:27:33;99926.41;;;21.14
62611;BMP280;48683;48.084;17.272;2023-08-31T07:29:58;99934.38;;;21.26
62611;BMP280;48683;48.084;17.272;2023-08-31T07:32:23;99930.84;;;21.35
62611;BMP280;48683;48.084;17.272;2023-08-31T07:34:48;99930.13;;;21.25
62611;BMP280;48683;48.084;17.272;2023-08-31T07:37:14;99932.41;;;21.27
62611;BMP280;48683;48.084;17.272;2023-08-31T07:39:39;99921.31;;;21.30
62611;BMP280;48683;48.084;17.272;2023-08-31T07:42:05;99922.28;;;21.18
62611;BMP280;48683;48.084;17.272;2023-08-31T07:44:30;99911.72;;;21.11
62611;BMP280;48683;48.084;17.272;2023-08-31T07:46:56;99922.06;;;21.31
62611;BMP280;48683;48.084;17.272;2023-08-31T07:49:21;99918.53;;;21.40
62611;BMP280;48683;48.084;17.272;2023-08-31T07:51:46;99933.81;;;21.61
62611;BMP280;48683;48.084;17.272;2023-08-31T07:54:18;99932.91;;;21.40
62611;BMP280;48683;48.084;17.272;2023-08-31T07:56:43;99931.50;;;21.68
62611;BMP280;48683;48.084;17.272;2023-08-31T07:59:09;99929.16;;;21.76
62611;BMP280;48683;48.084;17.272;2023-08-31T08:01:34;99926.78;;;21.69
62611;BMP280;48683;48.084;17.272;2023-08-31T08:04:00;99927.34;;;21.97
62611;BMP280;48683;48.084;17.272;2023-08-31T08:06:25;99923.09;;;21.96
62611;BMP280;48683;48.084;17.272;2023-08-31T08:08:50;99930.00;;;22.06
62611;BMP280;48683;48.084;17.272;2023-08-31T08:11:15;99928.75;;;21.92
62611;BMP280;48683;48.084;17.272;2023-08-31T08:13:41;99931.69;;;22.18
62611;BMP280;48683;48.084;17.272;2023-08-31T08:16:06;99926.91;;;22.28
62611;BMP280;48683;48.084;17.272;2023-08-31T08:18:33;99936.81;;;22.40
62611;BMP280;48683;48.084;17.272;2023-08-31T08:20:58;99932.81;;;22.26
62611;BMP280;48683;48.084;17.272;2023-08-31T08:23:23;99933.50;;;22.21
62611;BMP280;48683;48.084;17.272;2023-08-31T08:25:48;99935.09;;;22.42
62611;BMP280;48683;48.084;17.272;2023-08-31T08:28:13;99948.75;;;22.57
62611;BMP280;48683;48.084;17.272;2023-08-31T08:30:39;99948.38;;;22.64
62611;BMP280;48683;48.084;17.272;2023-08-31T08:33:04;99939.06;;;22.70
62611;BMP280;48683;48.084;17.272;2023-08-31T08:35:29;99938.09;;;22.59
62611;BMP280;48683;48.084;17.272;2023-08-31T08:37:54;99933.31;;;22.39
62611;BMP280;48683;48.084;17.272;2023-08-31T08:40:20;99940.47;;;22.51
62611;BMP280;48683;48.084;17.272;2023-08-31T08:42:46;99938.47;;;22.66
62611;BMP280;48683;48.084;17.272;2023-08-31T08:45:14;99944.13;;;22.78
62611;BMP280;48683;48.084;17.272;2023-08-31T08:47:43;99940.53;;;22.57
62611;BMP280;48683;48.084;17.272;2023-08-31T08:50:09;99936.31;;;22.56
62611;BMP280;48683;48.084;17.272;2023-08-31T08:52:34;99940.38;;;22.75
62611;BMP280;48683;48.084;17.272;2023-08-31T08:55:00;99949.16;;;22.79
62611;BMP280;48683;48.084;17.272;2023-08-31T08:57:25;99947.56;;;23.07
62611;BMP280;48683;48.084;17.272;2023-08-31T08:59:51;99945.81;;;22.90
62611;BMP280;48683;48.084;17.272;2023-08-31T09:02:16;99946.53;;;23.05
62611;BMP280;48683;48.084;17.272;2023-08-31T09:04:41;99947.09;;;23.09
62611;BMP280;48683;48.084;17.272;2023-08-31T09:07:06;99946.22;;;23.17
62611;BMP280;48683;48.084;17.272;2023-08-31T09:09:32;99949.00;;;23.23
62611;BMP280;48683;48.084;17.272;2023-08-31T09:12:05;99946.78;;;23.42
62611;BMP280;48683;48.084;17.272;2023-08-31T09:14:30;99947.72;;;23.53
62611;BMP280;48683;48.084;17.272;2023-08-31T09:16:56;99937.91;;;23.47
62611;BMP280;48683;48.084;17.272;2023-08-31T09:19:22;99940.72;;;23.73
62611;BMP280;48683;48.084;17.272;2023-08-31T09:21:51;99937.16;;;23.67
62611;BMP280;48683;48.084;17.272;2023-08-31T09:24:16;99931.63;;;23.61
62611;BMP280;48683;48.084;17.272;2023-08-31T09:26:45;99948.41;;;23.94
62611;BMP280;48683;48.084;17.272;2023-08-31T09:29:14;99939.50;;;23.99
62611;BMP280;48683;48.084;17.272;2023-08-31T09:31:42;99938.19;;;24.15
62611;BMP280;48683;48.084;17.272;2023-08-31T09:34:09;99934.81;;;24.05
62611;BMP280;48683;48.084;17.272;2023-08-31T09:36:34;99938.91;;;23.90
62611;BMP280;48683;48.084;17.272;2023-08-31T09:38:59;99943.88;;;24.11
62611;BMP280;48683;48.084;17.272;2023-08-31T09:41:24;99940.69;;;23.93
62611;BMP280;48683;48.084;17.272;2023-08-31T09:43:50;99949.25;;;24.26
62611;BMP280;48683;48.084;17.272;2023-08-31T09:46:15;99936.00;;;24.19
62611;BMP280;48683;48.084;17.272;2023-08-31T09:48:41;99956.63;;;24.15
62611;BMP280;48683;48.084;17.272;2023-08-31T09:51:07;99948.75;;;24.02
62611;BMP280;48683;48.084;17.272;2023-08-31T09:53:35;99951.72;;;24.24
62611;BMP280;48683;48.084;17.272;2023-08-31T09:56:01;99949.31;;;24.32
62611;BMP280;48683;48.084;17.272;2023-08-31T09:58:27;99954.84;;;24.11
62611;BMP280;48683;48.084;17.272;2023-08-31T10:00:52;99958.16;;;24.16
62611;BMP280;48683;48.084;17.272;2023-08-31T10:03:18;99949.97;;;24.01
62611;BMP280;48683;48.084;17.272;2023-08-31T10:05:45;99957.16;;;24.44
62611;BMP280;48683;48.084;17.272;2023-08-31T10:08:11;99947.16;;;24.41
62611;BMP280;48683;48.084;17.272;2023-08-31T10:10:36;99942.97;;;24.20
62611;BMP280;48683;48.084;17.272;2023-08-31T10:13:03;99947.06;;;24.30
62611;BMP280;48683;48.084;17.272;2023-08-31T10:15:31;99946.41;;;24.41
62611;BMP280;48683;48.084;17.272;2023-08-31T10:17:58;99947.78;;;24.56
62611;BMP280;48683;48.084;17.272;2023-08-31T10:20:24;99945.34;;;24.95
62611;BMP280;48683;48.084;17.272;2023-08-31T10:22:53;99941.84;;;24.64
62611;BMP280;48683;48.084;17.272;2023-08-31T10:25:18;99940.06;;;24.61
62611;BMP280;48683;48.084;17.272;2023-08-31T10:27:44;99943.88;;;24.69
62611;BMP280;48683;48.084;17.272;2023-08-31T10:30:33;99936.47;;;24.80
62611;BMP280;48683;48.084;17.272;2023-08-31T10:35:49;99946.38;;;24.67
62611;BMP280;48683;48.084;17.272;2023-08-31T10:43:25;99946.69;;;24.80
62611;BMP280;48683;48.084;17.272;2023-08-31T10:45:51;99939.06;;;24.89
62611;BMP280;48683;48.084;17.272;2023-08-31T10:48:17;99939.84;;;24.95
62611;BMP280;48683;48.084;17.272;2023-08-31T10:50:42;99932.72;;;25.15
62611;BMP280;48683;48.084;17.272;2023-08-31T10:53:09;99942.28;;;24.88
62611;BMP280;48683;48.084;17.272;2023-08-31T10:55:49;99946.09;;;24.96
62611;BMP280;48683;48.084;17.272;2023-08-31T10:58:15;99942.56;;;24.90
62611;BMP280;48683;48.084;17.272;2023-08-31T11:00:46;99941.19;;;25.11
62611;BMP280;48683;48.084;17.272;2023-08-31T11:03:12;99940.06;;;24.92
62611;BMP280;48683;48.084;17.272;2023-08-31T11:05:37;99933.31;;;24.87
62611;BMP280;48683;48.084;17.272;2023-08-31T11:08:15;99934.41;;;25.07
62611;BMP280;48683;48.084;17.272;2023-08-31T11:10:40;99932.56;;;25.35
62611;BMP280;48683;48.084;17.272;2023-08-31T11:13:10;99930.59;;;25.35
62611;BMP280;48683;48.084;17.272;2023-08-31T11:15:40;99937.03;;;25.27
62611;BMP280;48683;48.084;17.272;2023-08-31T11:18:10;99946.50;;;25.20
62611;BMP280;48683;48.084;17.272;2023-08-31T11:20:35;99940.81;;;25.35
62611;BMP280;48683;48.084;17.272;2023-08-31T11:23:01;99937.16;;;25.07
62611;BMP280;48683;48.084;17.272;2023-08-31T11:25:29;99946.88;;;25.44
62611;BMP280;48683;48.084;17.272;2023-08-31T11:27:56;99953.75;;;25.23
62611;BMP280;48683;48.084;17.272;2023-08-31T11:30:21;99952.84;;;25.43
62611;BMP280;48683;48.084;17.272;2023-08-31T11:32:47;99950.19;;;25.12
62611;BMP280;48683;48.084;17.272;2023-08-31T11:35:13;99954.44;;;25.18
62611;BMP280;48683;48.084;17.272;2023-08-31T11:37:38;99952.09;;;25.42
62611;BMP280;48683;48.084;17.272;2023-08-31T11:40:04;99950.84;;;25.43
62611;BMP280;48683;48.084;17.272;2023-08-31T11:42:30;99963.97;;;25.76
62611;BMP280;48683;48.084;17.272;2023-08-31T11:44:55;99958.00;;;25.24
62611;BMP280;48683;48.084;17.272;2023-08-31T11:47:21;99972.47;;;25.67
62611;BMP280;48683;48.084;17.272;2023-08-31T11:49:46;99960.19;;;25.63
62611;BMP280;48683;48.084;17.272;2023-08-31T11:52:13;99964.94;;;25.62
62611;BMP280;48683;48.084;17.272;2023-08-31T11:54:39;99963.44;;;25.61
62611;BMP280;48683;48.084;17.272;2023-08-31T11:57:06;99970.78;;;25.38
62611;BMP280;48683;48.084;17.272;2023-08-31T11:59:31;99962.22;;;25.25
62611;BMP280;48683;48.084;17.272;2023-08-31T12:01:59;99970.25;;;25.29
62611;BMP280;48683;48.084;17.272;2023-08-31T12:04:24;99965.56;;;24.98
62611;BMP280;48683;48.084;17.272;2023-08-31T12:06:50;99977.94;;;25.19
62611;BMP280;48683;48.084;17.272;2023-08-31T12:09:16;99974.94;;;25.17
62611;BMP280;48683;48.084;17.272;2023-08-31T12:11:41;99980.22;;;25.26
62611;BMP280;48683;48.084;17.272;2023-08-31T12:16:44;99987.31;;;25.44
62611;BMP280;48683;48.084;17.272;2023-08-31T12:19:09;99983.16;;;25.60
62611;BMP280;48683;48.084;17.272;2023-08-31T12:21:35;99982.88;;;25.52
62611;BMP280;48683;48.084;17.272;2023-08-31T12:24:00;99974.84;;;25.48
62611;BMP280;48683;48.084;17.272;2023-08-31T12:26:25;99976.41;;;25.13
62611;BMP280;48683;48.084;17.272;2023-08-31T12:28:50;99976.41;;;25.18
62611;BMP280;48683;48.084;17.272;2023-08-31T12:31:16;99981.91;;;25.13
62611;BMP280;48683;48.084;17.272;2023-08-31T12:33:41;99982.66;;;25.13
62611;BMP280;48683;48.084;17.272;2023-08-31T12:36:06;99988.09;;;25.50
62611;BMP280;48683;48.084;17.272;2023-08-31T12:38:32;99992.19;;;25.66
62611;BMP280;48683;48.084;17.272;2023-08-31T12:40:58;99996.97;;;25.76
62611;BMP280;48683;48.084;17.272;2023-08-31T12:43:23;99994.94;;;25.66
62611;BMP280;48683;48.084;17.272;2023-08-31T12:45:48;100000.94;;;25.27
62611;BMP280;48683;48.084;17.272;2023-08-31T12:48:14;99998.31;;;25.49
62611;BMP280;48683;48.084;17.272;2023-08-31T12:50:39;99994.16;;;25.60
62611;BMP280;48683;48.084;17.272;2023-08-31T12:53:04;99992.91;;;25.61
62611;BMP280;48683;48.084;17.272;2023-08-31T12:55:29;99994.94;;;25.66
62611;BMP280;48683;48.084;17.272;2023-08-31T12:57:55;99990.81;;;25.44
62611;BMP280;48683;48.084;17.272;2023-08-31T13:00:21;99992.34;;;25.51
62611;BMP280;48683;48.084;17.272;2023-08-31T13:02:46;99992.31;;;25.45
62611;BMP280;48683;48.084;17.272;2023-08-31T13:05:11;99998.72;;;25.31
62611;BMP280;48683;48.084;17.272;2023-08-31T13:07:37;99994.94;;;25.66
62611;BMP280;48683;48.084;17.272;2023-08-31T13:10:03;100001.34;;;25.51
62611;BMP280;48683;48.084;17.272;2023-08-31T13:12:31;100001.19;;;25.29
62611;BMP280;48683;48.084;17.272;2023-08-31T13:14:57;100001.28;;;25.40
62611;BMP280;48683;48.084;17.272;2023-08-31T13:17:23;99993.75;;;25.35
62611;BMP280;48683;48.084;17.272;2023-08-31T13:19:51;99994.41;;;25.56
62611;BMP280;48683;48.084;17.272;2023-08-31T13:22:17;99998.63;;;25.57
62611;BMP280;48683;48.084;17.272;2023-08-31T13:24:42;99986.56;;;25.49
62611;BMP280;48683;48.084;17.272;2023-08-31T13:27:07;100003.38;;;25.57
62611;BMP280;48683;48.084;17.272;2023-08-31T13:29:32;100001.94;;;25.72
62611;BMP280;48683;48.084;17.272;2023-08-31T13:31:57;100006.50;;;25.38
62611;BMP280;48683;48.084;17.272;2023-08-31T13:34:23;100001.66;;;25.65
62611;BMP280;48683;48.084;17.272;2023-08-31T13:36:48;99999.50;;;25.37
62611;BMP280;48683;48.084;17.272;2023-08-31T13:39:13;99998.78;;;25.42
62611;BMP280;48683;48.084;17.272;2023-08-31T13:41:38;100002.94;;;25.27
62611;BMP280;48683;48.084;17.272;2023-08-31T13:44:04;100003.75;;;25.33
62611;BMP280;48683;48.084;17.272;2023-08-31T13:46:29;100009.41;;;25.24
62611;BMP280;48683;48.084;17.272;2023-08-31T13:48:56;100012.03;;;25.01
62611;BMP280;48683;48.084;17.272;2023-08-31T13:51:21;100011.50;;;24.97
62611;BMP280;48683;48.084;17.272;2023-08-31T13:53:46;100014.97;;;24.98
62611;BMP280;48683;48.084;17.272;2023-08-31T13:56:12;100007.50;;;24.98
62611;BMP280;48683;48.084;17.272;2023-08-31T13:58:37;100003.31;;;24.77
62611;BMP280;48683;48.084;17.272;2023-08-31T14:01:02;100010.47;;;24.95
62611;BMP280;48683;48.084;17.272;2023-08-31T14:03:28;100010.75;;;24.97
62611;BMP280;48683;48.084;17.272;2023-08-31T14:05:54;100018.03;;;25.06
62611;BMP280;48683;48.084;17.272;2023-08-31T14:08:19;100008.97;;;24.94